createdAt,value
2023-01-21T00:00:31.201Z,101859.94
2023-01-21T00:05:34.334Z,101868.41
2023-01-21T00:10:36.060Z,101873.25
2023-01-21T00:15:37.808Z,101884.19
2023-01-21T00:20:40.872Z,101881.56
2023-01-21T00:25:42.576Z,101895.31
2023-01-21T00:30:44.774Z,101890.03
2023-01-21T00:35:50.641Z,101903.97
2023-01-21T00:40:52.374Z,101907.84
2023-01-21T00:45:54.136Z,101920.09
2023-01-21T00:51:00.452Z,101921.19
2023-01-21T00:56:03.128Z,101933.25
2023-01-21T01:01:06.049Z,101938.19
2023-01-21T01:06:10.212Z,101941.06
2023-01-21T01:11:12.417Z,101955.09
2023-01-21T01:16:14.888Z,101965.69
2023-01-21T01:21:18.752Z,101973.69
2023-01-21T01:26:20.909Z,101979.78
2023-01-21T01:31:22.752Z,101980.66
2023-01-21T01:36:25.877Z,101977.38
2023-01-21T01:41:29.405Z,101981.16
2023-01-21T01:46:31.873Z,101991.94
2023-01-21T01:51:41.283Z,101992.81
2023-01-21T01:56:43.782Z,101997.16
2023-01-21T02:01:45.490Z,102001.44
2023-01-21T02:06:48.636Z,102006.16
2023-01-21T02:11:50.267Z,102017.56
2023-01-21T02:17:04.863Z,102018.75
2023-01-21T02:22:10.488Z,102017.34
2023-01-21T02:27:37.311Z,102028.66
2023-01-21T02:33:18.261Z,102025.38
2023-01-21T02:38:22.851Z,102035.97
2023-01-21T02:43:30.074Z,102048.44
2023-01-21T02:48:34.701Z,102049.50
2023-01-21T02:53:36.378Z,102057.03
2023-01-21T02:58:40.007Z,102058.81
2023-01-21T03:04:06.009Z,102066.84
2023-01-21T03:09:16.096Z,102065.97
2023-01-21T03:14:39.679Z,102076.44
2023-01-21T03:19:44.995Z,102068.53
2023-01-21T03:24:48.296Z,102071.91
2023-01-21T03:29:50.678Z,102077.13
2023-01-21T03:34:54.186Z,102075.53
2023-01-21T03:40:00.224Z,102083.56
2023-01-21T03:45:01.951Z,102079.13
2023-01-21T03:50:07.045Z,102086.94
2023-01-21T03:55:09.028Z,102090.31
2023-01-21T04:00:12.232Z,102091.47
2023-01-21T04:05:15.480Z,102084.56
2023-01-21T04:10:17.809Z,102084.06
2023-01-21T04:15:19.644Z,102089.22
2023-01-21T04:20:22.719Z,102094.53
2023-01-21T04:25:24.521Z,102091.19
2023-01-21T04:30:26.224Z,102097.81
2023-01-21T04:35:29.265Z,102099.91
2023-01-21T04:40:31.025Z,102113.88
2023-01-21T04:45:32.715Z,102114.84
2023-01-21T04:50:35.927Z,102113.25
2023-01-21T04:55:37.609Z,102117.53
2023-01-21T05:00:39.307Z,102118.41
2023-01-21T05:05:42.358Z,102113.47
2023-01-21T05:10:44.068Z,102133.28
2023-01-21T05:15:45.791Z,102147.69
2023-01-21T05:20:48.792Z,102154.03
2023-01-21T05:25:50.511Z,102156.59
2023-01-21T05:30:52.251Z,102158.16
2023-01-21T05:35:55.316Z,102163.31
2023-01-21T05:40:57.305Z,102160.31
2023-01-21T05:45:59.126Z,102185.72
2023-01-21T05:51:02.227Z,102180.47
2023-01-21T05:56:04.573Z,102188.09
2023-01-21T06:01:06.249Z,102194.84
2023-01-21T06:06:09.504Z,102198.28
2023-01-21T06:11:11.223Z,102202.06
2023-01-21T06:16:12.932Z,102208.34
2023-01-21T06:21:15.940Z,102217.13
2023-01-21T06:26:17.676Z,102225.88
2023-01-21T06:31:19.488Z,102229.25
2023-01-21T06:36:22.925Z,102226.69
2023-01-21T06:41:24.807Z,102228.88
2023-01-21T06:46:26.638Z,102233.44
2023-01-21T06:51:29.726Z,102238.72
2023-01-21T06:56:31.506Z,102242.94
2023-01-21T07:01:33.281Z,102246.53
2023-01-21T07:06:36.527Z,102258.50
2023-01-21T07:11:38.386Z,102269.09
2023-01-21T07:16:40.116Z,102278.63
2023-01-21T07:21:43.199Z,102285.66
2023-01-21T07:26:44.915Z,102281.38
2023-01-21T07:31:46.713Z,102291.50
2023-01-21T07:36:49.764Z,102299.31
2023-01-21T07:41:51.534Z,102300.38
2023-01-21T07:46:53.303Z,102311.47
2023-01-21T07:51:57.613Z,102307.13
2023-01-21T07:56:59.370Z,102313.97
2023-01-21T08:02:01.375Z,102316.63
2023-01-21T08:07:12.009Z,102316.47
2023-01-21T08:12:14.742Z,102311.84
2023-01-21T08:17:16.513Z,102304.28
2023-01-21T08:22:19.761Z,102314.13
2023-01-21T08:27:21.589Z,102315.53
2023-01-21T08:32:23.393Z,102323.88
2023-01-21T08:37:26.597Z,102327.34
2023-01-21T08:42:28.392Z,102316.13
2023-01-21T08:47:30.170Z,102324.25
2023-01-21T08:52:33.252Z,102312.56
2023-01-21T08:57:34.946Z,102322.72
2023-01-21T09:02:36.698Z,102326.31
2023-01-21T09:07:39.759Z,102330.78
2023-01-21T09:12:41.603Z,102334.06
2023-01-21T09:17:43.263Z,102331.41
2023-01-21T09:22:46.285Z,102332.59
2023-01-21T09:27:48.332Z,102340.53
2023-01-21T09:32:50.159Z,102343.19
2023-01-21T09:37:53.387Z,102337.28
2023-01-21T09:42:55.523Z,102347.78
2023-01-21T09:47:57.410Z,102348.31
2023-01-21T09:53:03.158Z,102354.25
2023-01-21T09:58:09.244Z,102341.78
2023-01-21T10:03:18.566Z,102339.00
2023-01-21T10:08:25.370Z,102335.13
2023-01-21T10:13:34.422Z,102350.94
2023-01-21T10:18:37.539Z,102351.25
2023-01-21T10:23:43.048Z,102351.94
2023-01-21T10:28:47.605Z,102353.22
2023-01-21T10:33:49.309Z,102359.09
2023-01-21T10:38:56.096Z,102353.16
2023-01-21T10:44:00.500Z,102349.13
2023-01-21T10:49:07.949Z,102342.84
2023-01-21T10:54:13.935Z,102346.31
2023-01-21T10:59:16.995Z,102339.03
2023-01-21T11:04:20.409Z,102343.81
2023-01-21T11:09:24.530Z,102340.63
2023-01-21T11:14:26.266Z,102348.22
2023-01-21T11:19:30.434Z,102348.56
2023-01-21T11:24:42.275Z,102344.69
2023-01-21T11:29:44.024Z,102340.84
2023-01-21T11:34:45.945Z,102345.84
2023-01-21T11:39:51.416Z,102350.22
2023-01-21T11:44:54.066Z,102354.13
2023-01-21T11:49:56.936Z,102351.28
2023-01-21T11:55:00.097Z,102347.63
2023-01-21T12:00:07.664Z,102340.28
2023-01-21T12:05:15.628Z,102343.63
2023-01-21T12:10:29.982Z,102340.06
2023-01-21T12:15:41.338Z,102339.88
2023-01-21T12:20:45.456Z,102325.28
2023-01-21T12:25:52.121Z,102327.56
2023-01-21T12:30:58.231Z,102312.66
2023-01-21T12:36:01.115Z,102303.41
2023-01-21T12:41:05.205Z,102303.00
2023-01-21T12:46:10.661Z,102300.44
2023-01-21T12:51:15.099Z,102290.63
2023-01-21T12:56:24.007Z,102292.72
2023-01-21T13:01:34.051Z,102296.47
2023-01-21T13:06:52.720Z,102298.41
2023-01-21T13:11:57.709Z,102295.34
2023-01-21T13:17:01.044Z,102294.69
2023-01-21T13:22:04.739Z,102297.34
2023-01-21T13:27:11.366Z,102295.19
2023-01-21T13:32:24.200Z,102295.59
2023-01-21T13:37:29.641Z,102295.66
2023-01-21T13:42:40.383Z,102293.31
2023-01-21T13:48:05.838Z,102291.22
2023-01-21T13:53:19.642Z,102299.38
2023-01-21T13:58:28.443Z,102290.09
2023-01-21T14:03:31.817Z,102300.31
2023-01-21T14:08:35.161Z,102305.31
2023-01-21T14:13:56.060Z,102307.31
2023-01-21T14:19:09.006Z,102310.34
2023-01-21T14:24:16.131Z,102310.72
2023-01-21T14:29:22.962Z,102301.38
2023-01-21T14:34:25.670Z,102293.88
2023-01-21T14:39:34.829Z,102295.22
2023-01-21T14:44:40.073Z,102297.66
2023-01-21T14:49:42.602Z,102300.03
2023-01-21T14:54:44.532Z,102296.22
2023-01-21T14:59:47.594Z,102295.78
2023-01-21T15:04:52.194Z,102293.63
2023-01-21T15:09:54.846Z,102302.81
2023-01-21T15:14:59.174Z,102297.84
2023-01-21T15:20:00.957Z,102305.31
2023-01-21T15:25:20.215Z,102290.41
2023-01-21T15:30:27.882Z,102294.25
2023-01-21T15:35:30.755Z,102277.44
2023-01-21T15:40:36.572Z,102281.34
2023-01-21T15:45:42.743Z,102280.72
2023-01-21T15:50:46.431Z,102280.56
2023-01-21T15:56:01.693Z,102290.69
2023-01-21T16:01:05.672Z,102293.09
2023-01-21T16:06:10.923Z,102293.03
2023-01-21T16:11:37.474Z,102292.13
2023-01-21T16:16:47.025Z,102285.28
2023-01-21T16:21:50.620Z,102294.81
2023-01-21T16:26:52.353Z,102290.53
2023-01-21T16:31:59.831Z,102292.31
2023-01-21T16:37:05.054Z,102283.94
2023-01-21T16:42:06.901Z,102284.75
2023-01-21T16:47:14.300Z,102279.81
2023-01-21T16:52:19.858Z,102281.88
2023-01-21T16:57:25.559Z,102280.47
2023-01-21T17:02:31.440Z,102280.91
2023-01-21T17:07:34.748Z,102280.03
2023-01-21T17:12:36.673Z,102282.16
2023-01-21T17:17:39.664Z,102282.06
2023-01-21T17:22:44.003Z,102282.88
2023-01-21T17:27:45.827Z,102276.72
2023-01-21T17:32:53.775Z,102281.72
2023-01-21T17:37:56.483Z,102293.19
2023-01-21T17:42:59.722Z,102292.50
2023-01-21T17:48:13.429Z,102289.09
2023-01-21T17:53:22.116Z,102301.13
2023-01-21T17:58:35.468Z,102298.56
2023-01-21T18:03:38.495Z,102289.91
2023-01-21T18:08:40.190Z,102292.66
2023-01-21T18:13:41.911Z,102298.63
2023-01-21T18:18:45.045Z,102298.91
2023-01-21T18:23:46.987Z,102295.31
2023-01-21T18:28:48.881Z,102285.78
2023-01-21T18:33:51.954Z,102279.28
2023-01-21T18:38:53.676Z,102280.09
2023-01-21T18:43:55.590Z,102285.56
2023-01-21T18:48:58.599Z,102267.56
2023-01-21T18:54:00.347Z,102263.72
2023-01-21T18:59:02.106Z,102252.59
2023-01-21T19:04:05.217Z,102243.22
2023-01-21T19:09:20.377Z,102264.78
2023-01-21T19:14:22.094Z,102260.84
2023-01-21T19:19:25.138Z,102265.22
2023-01-21T19:24:26.877Z,102259.16
2023-01-21T19:29:28.615Z,102267.19
2023-01-21T19:34:32.074Z,102282.59
2023-01-21T19:39:34.459Z,102286.78
2023-01-21T19:44:36.168Z,102285.28
2023-01-21T19:49:39.205Z,102278.03
2023-01-21T19:54:40.938Z,102249.63
2023-01-21T19:59:42.659Z,102263.16
2023-01-21T20:04:45.667Z,102244.91
2023-01-21T20:09:47.405Z,102261.03
2023-01-21T20:14:49.089Z,102273.84
2023-01-21T20:19:52.134Z,102280.72
2023-01-21T20:24:53.786Z,102266.81
2023-01-21T20:30:08.594Z,102267.81
2023-01-21T20:35:18.807Z,102249.34
2023-01-21T20:40:21.849Z,102248.66
2023-01-21T20:45:26.226Z,102264.63
2023-01-21T20:50:36.262Z,102254.88
2023-01-21T20:55:38.517Z,102249.63
2023-01-21T21:00:40.425Z,102236.09
2023-01-21T21:05:43.574Z,102233.41
2023-01-21T21:10:45.443Z,102232.53
2023-01-21T21:15:47.153Z,102216.97
2023-01-21T21:20:50.159Z,102211.22
2023-01-21T21:25:52.217Z,102220.59
2023-01-21T21:30:53.901Z,102224.41
2023-01-21T21:35:56.946Z,102227.53
2023-01-21T21:41:18.629Z,102237.72
2023-01-21T21:46:39.059Z,102235.84
2023-01-21T21:51:43.512Z,102240.63
2023-01-21T21:56:47.161Z,102242.13
2023-01-21T22:01:48.868Z,102237.59
2023-01-21T22:06:51.950Z,102235.69
2023-01-21T22:11:53.690Z,102242.13
2023-01-21T22:16:55.436Z,102246.22
2023-01-21T22:21:58.459Z,102242.25
2023-01-21T22:27:00.184Z,102249.09
2023-01-21T22:32:03.732Z,102245.72
2023-01-21T22:37:06.759Z,102251.47
2023-01-21T22:42:08.474Z,102253.16
2023-01-21T22:47:10.370Z,102250.50
2023-01-21T22:52:13.401Z,102261.00
2023-01-21T22:57:15.231Z,102252.56
2023-01-21T23:02:18.261Z,102250.13
2023-01-21T23:07:21.283Z,102254.47
2023-01-21T23:12:23.070Z,102250.91
2023-01-21T23:17:24.897Z,102248.75
2023-01-21T23:22:27.900Z,102243.78
2023-01-21T23:27:29.561Z,102245.28
2023-01-21T23:32:31.306Z,102234.59
2023-01-21T23:37:34.468Z,102231.81
2023-01-21T23:42:36.159Z,102242.53
2023-01-21T23:47:37.795Z,102236.03
2023-01-21T23:52:40.889Z,102234.50
2023-01-21T23:57:42.565Z,102235.69
